createdAt,value
2019-02-16T00:00:09.855Z,2.48
2019-02-16T00:01:09.591Z,2.52
2019-02-16T00:02:09.332Z,2.55
2019-02-16T00:03:09.806Z,2.54
2019-02-16T00:04:09.788Z,2.69
2019-02-16T00:05:09.769Z,2.66
2019-02-16T00:06:09.521Z,2.63
2019-02-16T00:07:09.730Z,2.81
2019-02-16T00:08:09.720Z,2.7
2019-02-16T00:09:09.698Z,2.77
2019-02-16T00:10:09.431Z,2.8
2019-02-16T00:11:09.671Z,2.81
2019-02-16T00:12:09.648Z,2.78
2019-02-16T00:13:09.632Z,2.77
2019-02-16T00:14:09.617Z,2.8
2019-02-16T00:15:09.605Z,2.76
2019-02-16T00:16:09.581Z,2.8
2019-02-16T00:17:09.311Z,2.8
2019-02-16T00:18:09.609Z,2.78
2019-02-16T00:19:09.527Z,2.78
2019-02-16T00:20:09.760Z,2.8
2019-02-16T00:21:09.497Z,2.98
2019-02-16T00:22:09.226Z,2.93
2019-02-16T00:23:09.473Z,2.96
2019-02-16T00:24:09.440Z,2.96
2019-02-16T00:25:09.422Z,2.96
2019-02-16T00:26:09.413Z,2.91
2019-02-16T00:27:09.392Z,3.06
2019-02-16T00:28:09.377Z,3.03
2019-02-16T00:29:09.111Z,3.02
2019-02-16T00:30:09.340Z,2.99
2019-02-16T00:31:09.089Z,3.11
2019-02-16T00:32:09.308Z,3.06
2019-02-16T00:33:09.303Z,3.05
2019-02-16T00:34:12.554Z,3.11
2019-02-16T00:35:09.259Z,3.08
2019-02-16T00:36:09.244Z,3.09
2019-02-16T00:37:09.227Z,3.14
2019-02-16T00:38:09.211Z,3.23
2019-02-16T00:39:09.194Z,3.21
2019-02-16T00:40:09.184Z,3.19
2019-02-16T00:41:09.156Z,3.29
2019-02-16T00:42:09.158Z,3.42
2019-02-16T00:43:09.181Z,3.37
2019-02-16T00:44:09.111Z,3.45
2019-02-16T00:45:09.095Z,3.53
2019-02-16T00:46:09.083Z,3.46
2019-02-16T00:47:09.056Z,3.58
2019-02-16T00:48:09.037Z,3.54
2019-02-16T00:49:09.026Z,3.56
2019-02-16T00:50:09.011Z,3.48
2019-02-16T00:51:18.065Z,3.46
2019-02-16T00:52:08.979Z,3.54
2019-02-16T00:53:08.959Z,3.39
2019-02-16T00:54:08.944Z,3.48
2019-02-16T00:55:08.682Z,3.43
2019-02-16T00:56:08.914Z,3.29
2019-02-16T00:57:08.894Z,3.26
2019-02-16T00:58:08.876Z,3.19
2019-02-16T00:59:08.862Z,3.27
2019-02-16T01:00:08.849Z,3.14
2019-02-16T01:01:08.825Z,3.2
2019-02-16T01:02:08.818Z,3.19
2019-02-16T01:03:08.554Z,3.11
2019-02-16T01:04:08.773Z,3.11
2019-02-16T01:05:08.759Z,3.03
2019-02-16T01:06:08.745Z,3.01
2019-02-16T01:07:08.482Z,3.02
2019-02-16T01:08:08.708Z,2.98
2019-02-16T01:09:08.448Z,2.99
2019-02-16T01:10:08.673Z,2.95
2019-02-16T01:11:08.655Z,2.98
2019-02-16T01:12:08.652Z,2.99
2019-02-16T01:13:08.630Z,2.96
2019-02-16T01:14:08.610Z,3.02
2019-02-16T01:15:08.344Z,3.08
2019-02-16T01:16:08.331Z,3.16
2019-02-16T01:17:08.569Z,3.16
2019-02-16T01:18:09.198Z,3.19
2019-02-16T01:19:08.540Z,3.14
2019-02-16T01:20:08.263Z,3.14
2019-02-16T01:21:08.504Z,3.16
2019-02-16T01:22:08.490Z,3.16
2019-02-16T01:23:08.227Z,3.17
2019-02-16T01:24:08.199Z,3.2
2019-02-16T01:25:08.427Z,3.14
2019-02-16T01:26:08.415Z,3.14
2019-02-16T01:27:08.396Z,3.16
2019-02-16T01:28:08.379Z,3.09
2019-02-16T01:29:08.361Z,3.06
2019-02-16T01:30:08.353Z,3.08
2019-02-16T01:31:08.346Z,2.98
2019-02-16T01:32:08.311Z,2.91
2019-02-16T01:33:08.298Z,2.95
2019-02-16T01:34:08.287Z,2.85
2019-02-16T01:35:08.265Z,2.85
2019-02-16T01:36:08.248Z,2.8
2019-02-16T01:37:08.232Z,2.81
2019-02-16T01:38:08.215Z,2.76
2019-02-16T01:39:08.201Z,2.76
2019-02-16T01:40:07.930Z,2.78
2019-02-16T01:41:08.160Z,2.65
2019-02-16T01:42:08.151Z,2.65
2019-02-16T01:43:08.142Z,2.66
2019-02-16T01:44:08.118Z,2.69
2019-02-16T01:45:08.099Z,2.7
2019-02-16T01:46:07.838Z,2.65
2019-02-16T01:47:07.823Z,2.58
2019-02-16T01:48:08.051Z,2.54
2019-02-16T01:49:08.038Z,2.55
2019-02-16T01:50:08.013Z,2.6
2019-02-16T01:51:07.997Z,2.58
2019-02-16T01:52:07.988Z,2.54
2019-02-16T01:53:07.963Z,2.55
2019-02-16T01:54:07.950Z,2.54
2019-02-16T01:55:07.680Z,2.55
2019-02-16T01:56:07.663Z,2.52
2019-02-16T01:57:07.902Z,2.55
2019-02-16T01:58:07.877Z,2.55
2019-02-16T01:59:07.869Z,2.72
2019-02-16T02:00:07.850Z,2.67
2019-02-16T02:01:07.778Z,2.67
2019-02-16T02:02:07.809Z,2.77
2019-02-16T02:03:07.797Z,2.84
2019-02-16T02:04:07.782Z,2.91
2019-02-16T02:05:07.517Z,2.99
2019-02-16T02:06:07.769Z,3.08
2019-02-16T02:07:07.727Z,3.16
2019-02-16T02:08:07.710Z,3.19
2019-02-16T02:09:07.693Z,3.19
2019-02-16T02:10:07.681Z,3.23
2019-02-16T02:11:07.658Z,3.34
2019-02-16T02:12:07.398Z,3.45
2019-02-16T02:13:07.634Z,3.51
2019-02-16T02:14:07.605Z,3.48
2019-02-16T02:15:07.592Z,3.53
2019-02-16T02:16:07.831Z,3.57
2019-02-16T02:17:07.556Z,3.56
2019-02-16T02:18:07.542Z,3.66
2019-02-16T02:19:07.547Z,3.67
2019-02-16T02:20:07.517Z,3.57
2019-02-16T02:21:07.245Z,3.71
2019-02-16T02:22:07.483Z,3.71
2019-02-16T02:23:07.459Z,3.69
2019-02-16T02:24:07.437Z,3.71
2019-02-16T02:25:07.427Z,3.64
2019-02-16T02:26:07.411Z,3.66
2019-02-16T02:27:07.400Z,3.79
2019-02-16T02:28:07.379Z,3.72
2019-02-16T02:29:07.362Z,3.81
2019-02-16T02:30:07.173Z,3.81
2019-02-16T02:31:07.325Z,3.85
2019-02-16T02:32:07.344Z,3.89
2019-02-16T02:33:07.317Z,3.85
2019-02-16T02:34:07.035Z,3.85
2019-02-16T02:35:07.279Z,3.66
2019-02-16T02:36:07.248Z,3.75
2019-02-16T02:37:07.240Z,3.76
2019-02-16T02:38:07.207Z,3.69
2019-02-16T02:39:07.005Z,3.69
2019-02-16T02:40:07.184Z,3.71
2019-02-16T02:41:07.172Z,3.72
2019-02-16T02:42:07.161Z,3.74
2019-02-16T02:43:06.884Z,3.74
2019-02-16T02:44:07.122Z,3.67
2019-02-16T02:45:07.099Z,3.67
2019-02-16T02:46:07.090Z,3.67
2019-02-16T02:47:07.065Z,3.72
2019-02-16T02:48:07.053Z,3.53
2019-02-16T02:49:07.031Z,3.54
2019-02-16T02:50:06.767Z,3.57
2019-02-16T02:51:07.003Z,3.53
2019-02-16T02:52:06.993Z,3.48
2019-02-16T02:53:06.986Z,3.45
2019-02-16T02:54:06.983Z,3.35
2019-02-16T02:55:06.935Z,3.34
2019-02-16T02:56:06.921Z,3.35
2019-02-16T02:57:06.915Z,3.42
2019-02-16T02:58:06.890Z,3.48
2019-02-16T02:59:06.867Z,3.4
2019-02-16T03:00:06.862Z,3.35
2019-02-16T03:01:06.863Z,3.21
2019-02-16T03:02:06.338Z,3.16
2019-02-16T03:03:06.831Z,3.29
2019-02-16T03:04:06.823Z,3.21
2019-02-16T03:05:06.772Z,3.24
2019-02-16T03:06:06.757Z,3.16
2019-02-16T03:07:06.740Z,3.14
2019-02-16T03:08:06.723Z,3.2
2019-02-16T03:09:06.717Z,3.17
2019-02-16T03:10:06.687Z,3.16
2019-02-16T03:11:06.422Z,3.11
2019-02-16T03:12:06.424Z,3.19
2019-02-16T03:13:06.406Z,3.14
2019-02-16T03:14:06.639Z,3.02
2019-02-16T03:15:06.611Z,3.03
2019-02-16T03:16:06.597Z,3.05
2019-02-16T03:17:06.581Z,2.96
2019-02-16T03:18:06.576Z,3.05
2019-02-16T03:19:06.537Z,2.99
2019-02-16T03:20:06.526Z,3.01
2019-02-16T03:21:06.506Z,2.95
2019-02-16T03:22:08.113Z,2.95
2019-02-16T03:23:06.477Z,3.05
2019-02-16T03:24:06.456Z,3.02
2019-02-16T03:25:06.453Z,3.05
2019-02-16T03:26:06.421Z,3.01
2019-02-16T03:27:06.410Z,2.96
2019-02-16T03:28:06.394Z,3.01
2019-02-16T03:29:06.392Z,2.98
2019-02-16T03:30:06.376Z,2.9
2019-02-16T03:31:06.193Z,2.9
2019-02-16T03:32:06.360Z,2.99
2019-02-16T03:33:06.326Z,2.91
2019-02-16T03:34:06.355Z,2.9
2019-02-16T03:35:06.034Z,2.91
2019-02-16T03:36:06.259Z,2.83
2019-02-16T03:37:06.248Z,2.81
2019-02-16T03:38:06.367Z,2.8
2019-02-16T03:39:06.212Z,2.78
2019-02-16T03:40:06.191Z,2.81
2019-02-16T03:41:06.224Z,2.85
2019-02-16T03:42:06.152Z,2.78
2019-02-16T03:43:06.141Z,2.81
2019-02-16T03:44:06.123Z,2.73
2019-02-16T03:45:06.113Z,2.83
2019-02-16T03:46:06.097Z,2.8
2019-02-16T03:47:06.074Z,2.73
2019-02-16T03:48:06.056Z,2.8
2019-02-16T03:49:05.547Z,2.73
2019-02-16T03:50:06.037Z,2.73
2019-02-16T03:51:06.024Z,2.73
2019-02-16T03:52:15.876Z,2.72
2019-02-16T03:53:05.990Z,2.69
2019-02-16T03:54:05.987Z,2.66
2019-02-16T03:55:05.696Z,2.65
2019-02-16T03:56:05.690Z,2.59
2019-02-16T03:57:05.915Z,2.62
2019-02-16T03:58:05.658Z,2.55
2019-02-16T03:59:05.877Z,2.54
2019-02-16T04:00:05.852Z,2.63
2019-02-16T04:01:05.844Z,2.54
2019-02-16T04:02:05.827Z,2.6
2019-02-16T04:03:05.815Z,2.67
2019-02-16T04:04:05.808Z,2.55
2019-02-16T04:05:05.777Z,2.65
2019-02-16T04:06:05.774Z,2.72
2019-02-16T04:07:05.741Z,2.72
2019-02-16T04:08:05.729Z,2.81
2019-02-16T04:09:05.706Z,2.78
2019-02-16T04:10:05.683Z,2.77
2019-02-16T04:11:05.688Z,2.72
2019-02-16T04:12:05.650Z,2.78
2019-02-16T04:13:05.638Z,2.87
2019-02-16T04:14:05.617Z,2.85
2019-02-16T04:15:05.605Z,2.91
2019-02-16T04:16:05.582Z,3.08
2019-02-16T04:17:05.592Z,2.99
2019-02-16T04:18:05.555Z,3.08
2019-02-16T04:19:05.545Z,3.13
2019-02-16T04:20:05.296Z,3.11
2019-02-16T04:21:05.500Z,3.21
2019-02-16T04:22:05.499Z,3.21
2019-02-16T04:23:05.474Z,3.21
2019-02-16T04:24:05.449Z,3.23
2019-02-16T04:25:05.440Z,3.23
2019-02-16T04:26:05.421Z,3.24
2019-02-16T04:27:05.420Z,3.24
2019-02-16T04:28:05.385Z,3.32
2019-02-16T04:29:05.117Z,3.43
2019-02-16T04:30:05.356Z,3.39
2019-02-16T04:31:05.344Z,3.39
2019-02-16T04:32:05.315Z,3.4
2019-02-16T04:33:05.299Z,3.4
2019-02-16T04:34:05.297Z,3.39
2019-02-16T04:35:05.285Z,3.39
2019-02-16T04:36:05.258Z,3.4
2019-02-16T04:37:05.225Z,3.39
2019-02-16T04:38:05.210Z,3.51
2019-02-16T04:39:04.962Z,3.42
2019-02-16T04:40:05.184Z,3.53
2019-02-16T04:41:04.923Z,3.48
2019-02-16T04:42:05.156Z,3.51
2019-02-16T04:43:05.137Z,3.49
2019-02-16T04:44:05.116Z,3.53
2019-02-16T04:45:05.113Z,3.51
2019-02-16T04:46:05.113Z,3.64
2019-02-16T04:47:05.063Z,3.72
2019-02-16T04:48:05.048Z,3.71
2019-02-16T04:49:05.051Z,3.6
2019-02-16T04:50:04.858Z,3.6
2019-02-16T04:51:05.023Z,3.61
2019-02-16T04:52:04.997Z,3.58
2019-02-16T04:53:04.969Z,3.63
2019-02-16T04:54:04.719Z,3.61
2019-02-16T04:55:05.017Z,3.6
2019-02-16T04:56:04.920Z,3.53
2019-02-16T04:57:04.912Z,3.54
2019-02-16T04:58:04.886Z,3.64
2019-02-16T04:59:04.888Z,3.58
2019-02-16T05:00:05.164Z,3.58
2019-02-16T05:01:04.860Z,3.57
2019-02-16T05:02:04.831Z,3.64
2019-02-16T05:03:04.821Z,3.53
2019-02-16T05:04:04.789Z,3.56
2019-02-16T05:05:04.638Z,3.57
2019-02-16T05:06:04.768Z,3.53
2019-02-16T05:07:04.751Z,3.53
2019-02-16T05:08:04.472Z,3.53
2019-02-16T05:09:04.705Z,3.57
2019-02-16T05:10:04.699Z,3.6
2019-02-16T05:11:04.681Z,3.61
2019-02-16T05:12:04.668Z,3.57
2019-02-16T05:13:04.635Z,3.54
2019-02-16T05:14:04.376Z,3.48
2019-02-16T05:15:04.366Z,3.53
2019-02-16T05:16:04.605Z,3.56
2019-02-16T05:17:04.570Z,3.57
2019-02-16T05:18:04.656Z,3.6
2019-02-16T05:19:04.537Z,3.46
2019-02-16T05:20:04.276Z,3.49
2019-02-16T05:21:04.504Z,3.53
2019-02-16T05:22:04.489Z,3.53
2019-02-16T05:23:04.524Z,3.54
2019-02-16T05:24:04.202Z,3.53
2019-02-16T05:25:04.449Z,3.48
2019-02-16T05:26:04.439Z,3.45
2019-02-16T05:27:04.240Z,3.46
2019-02-16T05:28:04.392Z,3.3
2019-02-16T05:29:04.373Z,3.3
2019-02-16T05:30:04.370Z,3.2
2019-02-16T05:31:04.335Z,3.27
2019-02-16T05:32:04.077Z,3.24
2019-02-16T05:33:04.310Z,3.2
2019-02-16T05:34:04.287Z,3.21
2019-02-16T05:35:04.276Z,3.23
2019-02-16T05:36:04.264Z,3.21
2019-02-16T05:37:04.253Z,3.24
2019-02-16T05:38:04.234Z,3.23
2019-02-16T05:39:04.024Z,3.21
2019-02-16T05:40:04.206Z,3.13
2019-02-16T05:41:04.178Z,3.16
2019-02-16T05:42:04.162Z,3.06
2019-02-16T05:43:04.157Z,3.09
2019-02-16T05:44:04.135Z,3.09
2019-02-16T05:45:04.112Z,2.91
2019-02-16T05:46:03.863Z,3.03
2019-02-16T05:47:04.105Z,3.06
2019-02-16T05:48:04.069Z,3.13
2019-02-16T05:49:04.073Z,2.96
2019-02-16T05:50:04.042Z,2.95
2019-02-16T05:51:04.022Z,2.96
2019-02-16T05:52:03.994Z,2.93
2019-02-16T05:53:03.972Z,2.88
2019-02-16T05:54:03.956Z,3.01
2019-02-16T05:55:03.705Z,2.85
2019-02-16T05:56:03.929Z,2.84
2019-02-16T05:57:03.903Z,2.84
2019-02-16T05:58:03.713Z,2.81
2019-02-16T05:59:03.878Z,2.83
2019-02-16T06:00:03.863Z,2.93
2019-02-16T06:01:03.850Z,2.88
2019-02-16T06:02:03.824Z,3.01
2019-02-16T06:03:03.962Z,3.05
2019-02-16T06:04:03.836Z,2.96
2019-02-16T06:05:03.795Z,2.96
2019-02-16T06:06:03.760Z,3.01
2019-02-16T06:07:03.746Z,3.01
2019-02-16T06:08:03.747Z,2.99
2019-02-16T06:09:03.478Z,2.96
2019-02-16T06:10:03.690Z,2.96
2019-02-16T06:11:05.749Z,2.96
2019-02-16T06:12:03.754Z,3.06
2019-02-16T06:13:03.644Z,3.03
2019-02-16T06:14:03.380Z,2.99
2019-02-16T06:15:03.361Z,3.03
2019-02-16T06:16:03.615Z,3.05
2019-02-16T06:17:03.325Z,2.96
2019-02-16T06:18:03.560Z,2.93
2019-02-16T06:19:03.544Z,3.05
2019-02-16T06:20:03.271Z,2.93
2019-02-16T06:21:04.405Z,3.02
2019-02-16T06:22:03.501Z,3.05
2019-02-16T06:23:09.321Z,3.09
2019-02-16T06:24:03.454Z,3.08
2019-02-16T06:25:03.437Z,3.2
2019-02-16T06:26:03.287Z,3.24
2019-02-16T06:27:03.411Z,3.26
2019-02-16T06:28:03.390Z,3.3
2019-02-16T06:29:03.373Z,3.32
2019-02-16T06:30:03.353Z,3.37
2019-02-16T06:31:03.346Z,3.35
2019-02-16T06:32:03.085Z,3.4
2019-02-16T06:33:03.310Z,3.48
2019-02-16T06:34:03.286Z,3.34
2019-02-16T06:35:03.268Z,3.34
2019-02-16T06:36:03.259Z,3.46
2019-02-16T06:37:02.990Z,3.4
2019-02-16T06:38:03.232Z,3.48
2019-02-16T06:39:03.212Z,3.42
2019-02-16T06:40:03.262Z,3.37
2019-02-16T06:41:03.178Z,3.46
2019-02-16T06:42:02.911Z,3.42
2019-02-16T06:43:03.140Z,3.42
2019-02-16T06:44:03.128Z,3.49
2019-02-16T06:45:03.105Z,3.48
2019-02-16T06:46:03.416Z,3.49
2019-02-16T06:47:02.825Z,3.42
2019-02-16T06:48:02.813Z,3.46
2019-02-16T06:49:03.042Z,3.46
2019-02-16T06:50:02.779Z,3.54
2019-02-16T06:51:02.756Z,3.53
2019-02-16T06:52:03.000Z,3.53
2019-02-16T06:53:02.979Z,3.53
2019-02-16T06:54:02.958Z,3.49
2019-02-16T06:55:02.945Z,3.49
2019-02-16T06:56:02.925Z,3.56
2019-02-16T06:57:02.663Z,3.54
2019-02-16T06:58:02.891Z,3.58
2019-02-16T06:59:02.896Z,3.48
2019-02-16T07:00:02.864Z,3.57
2019-02-16T07:01:02.840Z,3.6
2019-02-16T07:02:02.834Z,3.64
2019-02-16T07:03:02.810Z,3.57
2019-02-16T07:04:02.794Z,3.63
2019-02-16T07:05:02.783Z,3.6
2019-02-16T07:06:02.762Z,3.74
2019-02-16T07:07:02.755Z,3.69
2019-02-16T07:08:02.729Z,3.74
2019-02-16T07:09:02.713Z,3.72
2019-02-16T07:10:02.823Z,3.72
2019-02-16T07:11:02.436Z,3.66
2019-02-16T07:12:02.667Z,3.66
2019-02-16T07:13:02.656Z,3.75
2019-02-16T07:14:02.633Z,3.81
2019-02-16T07:15:02.765Z,3.78
2019-02-16T07:16:02.600Z,3.78
2019-02-16T07:17:02.597Z,3.82
2019-02-16T07:18:02.569Z,3.81
2019-02-16T07:19:02.550Z,3.85
2019-02-16T07:20:02.489Z,3.78
2019-02-16T07:21:02.520Z,3.85
2019-02-16T07:22:02.266Z,3.9
2019-02-16T07:23:02.485Z,3.82
2019-02-16T07:24:02.523Z,3.85
2019-02-16T07:25:02.607Z,3.82
2019-02-16T07:26:02.440Z,3.85
2019-02-16T07:27:02.446Z,3.86
2019-02-16T07:28:02.405Z,4
2019-02-16T07:29:02.385Z,4.03
2019-02-16T07:30:02.129Z,3.99
2019-02-16T07:31:02.358Z,4.02
2019-02-16T07:32:02.343Z,4.11
2019-02-16T07:33:02.331Z,4.07
2019-02-16T07:34:02.310Z,4.1
2019-02-16T07:35:02.293Z,4.22
2019-02-16T07:36:02.275Z,4.2
2019-02-16T07:37:02.262Z,4.15
2019-02-16T07:38:02.253Z,4.14
2019-02-16T07:39:02.244Z,4.2
2019-02-16T07:40:02.224Z,4.26
2019-02-16T07:41:02.192Z,4.24
2019-02-16T07:42:01.999Z,4.29
2019-02-16T07:43:02.237Z,4.24
2019-02-16T07:44:02.154Z,4.26
2019-02-16T07:45:02.141Z,4.33
2019-02-16T07:46:02.114Z,4.3
2019-02-16T07:47:02.112Z,4.32
2019-02-16T07:48:02.082Z,4.36
2019-02-16T07:49:02.070Z,4.42
2019-02-16T07:50:02.055Z,4.47
2019-02-16T07:51:02.047Z,4.46
2019-02-16T07:52:01.776Z,4.39
2019-02-16T07:53:02.008Z,4.46
2019-02-16T07:54:01.990Z,4.5
2019-02-16T07:55:01.970Z,4.48
2019-02-16T07:56:01.969Z,4.5
2019-02-16T07:57:01.941Z,4.53
2019-02-16T07:58:01.927Z,4.47
2019-02-16T07:59:01.662Z,4.47
2019-02-16T08:00:01.897Z,4.53
2019-02-16T08:01:01.879Z,4.46
2019-02-16T08:02:01.865Z,4.53
2019-02-16T08:03:01.856Z,4.56
2019-02-16T08:04:01.836Z,4.64
2019-02-16T08:05:01.820Z,4.69
2019-02-16T08:06:01.813Z,4.76
2019-02-16T08:07:01.813Z,4.92
2019-02-16T08:08:01.774Z,5.05
2019-02-16T08:09:01.759Z,5.16
2019-02-16T08:10:01.491Z,5.16
2019-02-16T08:11:01.725Z,5.13
2019-02-16T08:12:01.462Z,5.28
2019-02-16T08:13:01.446Z,5.24
2019-02-16T08:14:02.731Z,5.42
2019-02-16T08:15:01.669Z,5.45
2019-02-16T08:16:01.402Z,5.54
2019-02-16T08:17:01.381Z,5.66
2019-02-16T08:18:01.620Z,5.55
2019-02-16T08:19:01.601Z,5.63
2019-02-16T08:20:01.583Z,5.62
2019-02-16T08:21:01.568Z,5.66
2019-02-16T08:22:01.555Z,5.67
2019-02-16T08:23:01.550Z,5.6
2019-02-16T08:24:01.540Z,5.62
2019-02-16T08:25:01.514Z,5.59
2019-02-16T08:26:01.499Z,5.67
2019-02-16T08:27:01.478Z,5.69
2019-02-16T08:28:01.464Z,5.8
2019-02-16T08:29:01.448Z,5.8
2019-02-16T08:30:01.442Z,5.84
2019-02-16T08:31:01.431Z,5.8
2019-02-16T08:32:01.401Z,5.89
2019-02-16T08:33:01.387Z,5.88
2019-02-16T08:34:01.382Z,5.89
2019-02-16T08:35:01.362Z,5.92
2019-02-16T08:36:01.351Z,5.91
2019-02-16T08:37:01.334Z,5.92
2019-02-16T08:38:01.316Z,5.92
2019-02-16T08:39:01.306Z,5.91
2019-02-16T08:40:01.099Z,5.99
2019-02-16T08:41:01.273Z,5.96
2019-02-16T08:42:01.266Z,6
2019-02-16T08:43:01.253Z,6.09
2019-02-16T08:44:00.984Z,6.17
2019-02-16T08:45:01.235Z,6.18
2019-02-16T08:46:01.204Z,6.21
2019-02-16T08:47:01.190Z,6.17
2019-02-16T08:48:01.182Z,6.29
2019-02-16T08:49:01.156Z,6.28
2019-02-16T08:50:00.905Z,6.26
2019-02-16T08:51:01.132Z,6.34
2019-02-16T08:52:00.873Z,6.43
2019-02-16T08:53:01.097Z,6.57
2019-02-16T08:54:01.088Z,6.6
2019-02-16T08:55:01.072Z,6.67
2019-02-16T08:56:01.063Z,6.67
2019-02-16T08:57:01.039Z,6.79
2019-02-16T08:58:01.034Z,6.83
2019-02-16T08:59:01.017Z,6.9
2019-02-16T09:00:01.000Z,7.01
2019-02-16T09:01:00.985Z,7.08
2019-02-16T09:02:00.969Z,7.04
2019-02-16T09:03:00.959Z,7.11
2019-02-16T09:04:00.945Z,7.23
2019-02-16T09:05:00.946Z,7.34
2019-02-16T09:06:00.954Z,7.51
2019-02-16T09:07:02.412Z,7.47
2019-02-16T09:08:00.893Z,7.58
2019-02-16T09:09:00.876Z,7.59
2019-02-16T09:10:00.866Z,7.82
2019-02-16T09:11:00.851Z,7.82
2019-02-16T09:12:00.890Z,7.98
2019-02-16T09:13:00.822Z,7.93
2019-02-16T09:14:00.808Z,8.09
2019-02-16T09:15:00.857Z,8.11
2019-02-16T09:16:00.793Z,8.22
2019-02-16T09:17:00.771Z,8.19
2019-02-16T09:18:00.759Z,8.28
2019-02-16T09:19:00.746Z,8.42
2019-02-16T09:20:00.735Z,8.39
2019-02-16T09:21:00.716Z,8.46
2019-02-16T09:22:00.702Z,8.35
2019-02-16T09:23:00.693Z,8.34
2019-02-16T09:24:04.183Z,8.44
2019-02-16T09:25:00.666Z,8.6
2019-02-16T09:26:00.401Z,8.62
2019-02-16T09:27:00.639Z,8.69
2019-02-16T09:28:00.632Z,8.76
2019-02-16T09:29:00.615Z,8.74
2019-02-16T09:30:00.607Z,8.85
2019-02-16T09:31:00.599Z,9.01
2019-02-16T09:32:00.587Z,9.03
2019-02-16T09:33:00.568Z,9.01
2019-02-16T09:34:00.554Z,9.11
2019-02-16T09:35:00.543Z,9.09
2019-02-16T09:36:00.524Z,9.23
2019-02-16T09:37:00.265Z,9.21
2019-02-16T09:38:00.256Z,9.39
2019-02-16T09:39:00.494Z,9.3
2019-02-16T09:40:00.480Z,9.39
2019-02-16T09:41:00.467Z,9.37
2019-02-16T09:42:00.450Z,9.35
2019-02-16T09:43:01.708Z,9.5
2019-02-16T09:44:00.432Z,9.5
2019-02-16T09:45:00.428Z,9.56
2019-02-16T09:46:00.406Z,9.56
2019-02-16T09:47:00.395Z,9.6
2019-02-16T09:48:00.130Z,9.59
2019-02-16T09:49:00.370Z,9.6
2019-02-16T09:50:00.334Z,9.67
2019-02-16T09:51:00.354Z,9.67
2019-02-16T09:52:00.340Z,9.67
2019-02-16T09:53:00.328Z,9.7
2019-02-16T09:54:08.075Z,9.72
2019-02-16T09:55:00.320Z,9.7
2019-02-16T09:56:00.283Z,9.77
2019-02-16T09:57:00.289Z,9.8
2019-02-16T09:58:00.266Z,9.75
2019-02-16T09:59:00.253Z,9.75
2019-02-16T09:59:59.984Z,9.82
2019-02-16T10:00:59.983Z,9.93
2019-02-16T10:02:00.214Z,9.92
2019-02-16T10:03:00.204Z,9.96
2019-02-16T10:04:00.184Z,9.99
2019-02-16T10:05:00.223Z,10.03
2019-02-16T10:06:00.169Z,10.08
2019-02-16T10:06:59.902Z,10.08
2019-02-16T10:08:00.143Z,10
2019-02-16T10:09:00.128Z,10.02
2019-02-16T10:10:00.234Z,10.02
2019-02-16T10:11:00.409Z,9.98
2019-02-16T10:12:00.097Z,10.07
2019-02-16T10:13:00.671Z,10.11
2019-02-16T10:14:00.077Z,10.25
2019-02-16T10:14:59.817Z,10.25
2019-02-16T10:16:00.050Z,10.31
2019-02-16T10:16:59.789Z,10.28
2019-02-16T10:17:59.779Z,10.2
2019-02-16T10:19:00.018Z,10.21
2019-02-16T10:20:00.008Z,10.23
2019-02-16T10:20:59.993Z,10.26
2019-02-16T10:21:59.732Z,10.29
2019-02-16T10:22:59.978Z,10.25
2019-02-16T10:23:59.958Z,10.23
2019-02-16T10:24:59.950Z,10.31
2019-02-16T10:25:59.935Z,10.46
2019-02-16T10:26:59.679Z,10.52
2019-02-16T10:27:59.919Z,10.55
2019-02-16T10:28:59.910Z,10.65
2019-02-16T10:29:59.894Z,10.79
2019-02-16T10:31:00.698Z,10.77
2019-02-16T10:31:59.622Z,10.92
2019-02-16T10:32:59.937Z,10.95
2019-02-16T10:33:59.854Z,11.08
2019-02-16T10:34:59.840Z,11.1
2019-02-16T10:35:59.830Z,11.28
2019-02-16T10:36:59.564Z,11.33
2019-02-16T10:37:59.564Z,11.45
2019-02-16T10:39:01.149Z,11.45
2019-02-16T10:39:59.793Z,11.56
2019-02-16T10:41:01.457Z,11.63
2019-02-16T10:41:59.763Z,11.66
2019-02-16T10:42:59.749Z,11.66
2019-02-16T10:44:00.867Z,11.81
2019-02-16T10:44:59.731Z,11.89
2019-02-16T10:45:59.730Z,11.84
2019-02-16T10:46:59.711Z,11.97
2019-02-16T10:47:59.703Z,12.03
2019-02-16T10:48:59.689Z,12.05
2019-02-16T10:49:59.432Z,12.11
2019-02-16T10:50:59.674Z,12.18
2019-02-16T10:51:59.666Z,12.18
2019-02-16T10:52:59.649Z,12.23
2019-02-16T10:54:00.976Z,12.28
2019-02-16T10:54:59.626Z,12.33
2019-02-16T10:55:59.366Z,12.25
2019-02-16T10:56:59.716Z,12.29
2019-02-16T10:57:59.600Z,12.38
2019-02-16T10:58:59.584Z,12.4
2019-02-16T10:59:59.333Z,12.4
2019-02-16T11:00:59.579Z,12.48
2019-02-16T11:01:59.579Z,12.43
2019-02-16T11:02:59.551Z,12.44
2019-02-16T11:03:59.540Z,12.44
2019-02-16T11:05:01.622Z,12.52
2019-02-16T11:05:59.518Z,12.48
2019-02-16T11:06:59.013Z,12.62
2019-02-16T11:07:59.248Z,12.59
2019-02-16T11:08:59.496Z,12.65
2019-02-16T11:09:59.483Z,12.55
2019-02-16T11:10:59.472Z,12.61
2019-02-16T11:11:59.465Z,12.61
2019-02-16T11:12:59.208Z,12.7
2019-02-16T11:13:59.195Z,12.73
2019-02-16T11:14:59.438Z,12.73
2019-02-16T11:15:59.423Z,12.8
2019-02-16T11:16:59.168Z,12.83
2019-02-16T11:18:00.728Z,12.83
2019-02-16T11:18:59.413Z,12.83
2019-02-16T11:19:59.194Z,12.84
2019-02-16T11:20:59.379Z,12.92
2019-02-16T11:21:59.373Z,12.96
2019-02-16T11:22:59.357Z,12.95
2019-02-16T11:23:59.347Z,12.96
2019-02-16T11:24:59.338Z,12.95
2019-02-16T11:25:59.334Z,13.03
2019-02-16T11:26:59.322Z,13.02
2019-02-16T11:27:59.314Z,13.07
2019-02-16T11:28:59.300Z,13.13
2019-02-16T11:29:59.305Z,13.16
2019-02-16T11:30:59.278Z,13.11
2019-02-16T11:31:59.023Z,13.11
2019-02-16T11:32:59.278Z,13.25
2019-02-16T11:33:59.263Z,13.1
2019-02-16T11:34:59.273Z,13.09
2019-02-16T11:35:59.245Z,13.11
2019-02-16T11:36:59.234Z,13.14
2019-02-16T11:37:59.004Z,13.25
2019-02-16T11:38:59.220Z,13.16
2019-02-16T11:39:59.203Z,13.24
2019-02-16T11:40:59.203Z,13.17
2019-02-16T11:41:59.184Z,13.2
2019-02-16T11:42:59.170Z,13.24
2019-02-16T11:43:59.169Z,13.27
2019-02-16T11:44:59.154Z,13.32
2019-02-16T11:45:59.151Z,13.36
2019-02-16T11:46:59.144Z,13.28
2019-02-16T11:48:00.639Z,13.4
2019-02-16T11:48:59.132Z,13.29
2019-02-16T11:49:59.125Z,13.2
2019-02-16T11:50:59.103Z,13.25
2019-02-16T11:51:58.599Z,13.21
2019-02-16T11:52:59.097Z,13.2
2019-02-16T11:53:59.078Z,13.21
2019-02-16T11:54:59.076Z,13.24
2019-02-16T11:55:58.811Z,13.27
2019-02-16T11:56:59.049Z,13.25
2019-02-16T11:57:59.044Z,13.27
2019-02-16T11:58:59.028Z,13.32
2019-02-16T11:59:59.038Z,13.27
2019-02-16T12:00:59.022Z,13.36
2019-02-16T12:01:59.011Z,13.28
2019-02-16T12:02:58.998Z,13.4
2019-02-16T12:03:58.986Z,13.35
2019-02-16T12:04:58.980Z,13.37
2019-02-16T12:05:58.984Z,13.42
2019-02-16T12:06:58.968Z,13.48
2019-02-16T12:07:59.248Z,13.39
2019-02-16T12:08:58.944Z,13.44
2019-02-16T12:09:58.690Z,13.45
2019-02-16T12:10:58.678Z,13.4
2019-02-16T12:11:58.923Z,13.39
2019-02-16T12:12:58.959Z,13.44
2019-02-16T12:13:58.907Z,13.44
2019-02-16T12:14:58.894Z,13.44
2019-02-16T12:15:59.970Z,13.44
2019-02-16T12:16:58.632Z,13.4
2019-02-16T12:17:58.877Z,13.36
2019-02-16T12:18:58.862Z,13.36
2019-02-16T12:19:58.857Z,13.36
2019-02-16T12:20:58.842Z,13.27
2019-02-16T12:21:58.584Z,13.4
2019-02-16T12:22:58.827Z,13.32
2019-02-16T12:23:58.577Z,13.36
2019-02-16T12:25:10.131Z,13.35
2019-02-16T12:25:58.552Z,13.32
2019-02-16T12:26:58.803Z,13.29
2019-02-16T12:27:58.781Z,13.29
2019-02-16T12:28:58.526Z,13.2
2019-02-16T12:29:58.523Z,13.17
2019-02-16T12:30:58.761Z,13.21
2019-02-16T12:31:58.498Z,13.21
2019-02-16T12:32:58.747Z,13.2
2019-02-16T12:33:58.735Z,13.24
2019-02-16T12:34:58.477Z,13.17
2019-02-16T12:35:58.711Z,13.07
2019-02-16T12:36:58.458Z,13.16
2019-02-16T12:37:58.441Z,13.07
2019-02-16T12:39:07.145Z,13.16
2019-02-16T12:39:58.681Z,13.1
2019-02-16T12:40:58.669Z,13.03
2019-02-16T12:41:58.660Z,13.09
2019-02-16T12:42:58.655Z,13.07
2019-02-16T12:43:58.647Z,13.16
2019-02-16T12:44:58.631Z,13.03
2019-02-16T12:45:58.626Z,12.96
2019-02-16T12:46:58.627Z,12.96
2019-02-16T12:47:58.604Z,12.95
2019-02-16T12:48:58.618Z,12.94
2019-02-16T12:49:58.347Z,12.92
2019-02-16T12:50:59.520Z,12.91
2019-02-16T12:51:58.577Z,12.94
2019-02-16T12:52:58.560Z,12.88
2019-02-16T12:53:58.559Z,12.89
2019-02-16T12:54:58.547Z,12.95
2019-02-16T12:55:58.536Z,12.94
2019-02-16T12:56:58.540Z,12.95
2019-02-16T12:57:58.528Z,12.92
2019-02-16T12:58:58.507Z,12.83
2019-02-16T12:59:58.563Z,12.94
2019-02-16T13:00:58.494Z,12.86
2019-02-16T13:01:58.487Z,12.8
2019-02-16T13:02:58.480Z,12.8
2019-02-16T13:03:58.225Z,12.74
2019-02-16T13:04:57.965Z,12.71
2019-02-16T13:05:58.485Z,12.71
2019-02-16T13:06:58.468Z,12.7
2019-02-16T13:07:58.462Z,12.62
2019-02-16T13:08:58.446Z,12.59
2019-02-16T13:09:58.425Z,12.62
2019-02-16T13:10:58.456Z,12.48
2019-02-16T13:11:58.455Z,12.56
2019-02-16T13:12:58.424Z,12.47
2019-02-16T13:13:58.390Z,12.56
2019-02-16T13:15:00.439Z,12.51